createdAt,value
2022-12-08T00:00:53.019Z,1.60
2022-12-08T00:03:23.608Z,1.70
2022-12-08T00:06:08.912Z,1.60
2022-12-08T00:08:51.479Z,1.70
2022-12-08T00:11:22.831Z,1.70
2022-12-08T00:13:53.364Z,1.80
2022-12-08T00:16:23.479Z,1.90
2022-12-08T00:18:53.657Z,2.00
2022-12-08T00:21:26.302Z,2.10
2022-12-08T00:23:58.475Z,2.10
2022-12-08T00:26:28.589Z,2.10
2022-12-08T00:28:58.881Z,2.10
2022-12-08T00:31:29.056Z,2.10
2022-12-08T00:33:59.445Z,2.00
2022-12-08T00:36:32.705Z,1.80
2022-12-08T00:39:03.437Z,1.70
2022-12-08T00:41:46.004Z,1.50
2022-12-08T00:44:19.955Z,1.30
2022-12-08T00:46:51.486Z,1.10
2022-12-08T00:49:22.750Z,0.80
2022-12-08T00:51:55.694Z,0.50
2022-12-08T00:54:26.151Z,0.50
2022-12-08T00:56:56.427Z,0.40
2022-12-08T00:59:26.505Z,0.10
2022-12-08T01:01:56.596Z,-0.10
2022-12-08T01:04:27.817Z,-0.40
2022-12-08T01:07:00.431Z,-0.60
2022-12-08T01:09:30.470Z,-0.60
2022-12-08T01:12:00.594Z,-0.70
2022-12-08T01:14:30.936Z,-0.90
2022-12-08T01:17:01.092Z,-0.90
2022-12-08T01:19:31.224Z,-0.90
2022-12-08T01:22:03.881Z,-1.00
2022-12-08T01:24:34.505Z,-1.00
2022-12-08T01:27:04.655Z,-1.00
2022-12-08T01:29:34.806Z,-1.10
2022-12-08T01:32:05.270Z,-1.20
2022-12-08T01:34:35.391Z,-1.20
2022-12-08T01:37:08.216Z,-1.20
2022-12-08T01:39:38.690Z,-1.30
2022-12-08T01:42:08.997Z,-1.40
2022-12-08T01:45:08.577Z,-1.40
2022-12-08T01:47:45.580Z,-1.40
2022-12-08T01:50:19.940Z,-1.50
2022-12-08T01:52:57.774Z,-1.50
2022-12-08T01:55:34.844Z,-1.50
2022-12-08T01:58:14.358Z,-1.40
2022-12-08T02:00:44.797Z,-1.50
2022-12-08T02:03:23.096Z,-1.50
2022-12-08T02:05:54.849Z,-1.50
2022-12-08T02:08:28.738Z,-1.50
2022-12-08T02:10:58.860Z,-1.60
2022-12-08T02:13:29.180Z,-1.50
2022-12-08T02:16:11.894Z,-1.50
2022-12-08T02:22:11.406Z,-1.50
2022-12-08T02:24:54.729Z,-1.70
2022-12-08T02:27:43.142Z,-1.70
2022-12-08T02:30:27.843Z,-1.70
2022-12-08T02:33:53.432Z,-1.80
2022-12-08T02:36:35.351Z,-1.80
2022-12-08T02:39:19.373Z,-1.80
2022-12-08T02:42:02.455Z,-1.90
2022-12-08T02:44:41.883Z,-2.00
2022-12-08T02:47:16.942Z,-2.00
2022-12-08T02:49:49.928Z,-2.10
2022-12-08T02:52:46.483Z,-2.00
2022-12-08T02:55:29.500Z,-2.20
2022-12-08T02:58:35.365Z,-2.20
2022-12-08T03:01:34.297Z,-2.40
2022-12-08T03:04:15.227Z,-2.30
2022-12-08T03:07:00.546Z,-2.60
2022-12-08T03:09:41.094Z,-2.50
2022-12-08T03:12:21.137Z,-2.40
2022-12-08T03:14:56.646Z,-2.50
2022-12-08T03:17:32.210Z,-2.60
2022-12-08T03:20:11.989Z,-2.50
2022-12-08T03:22:47.180Z,-2.50
2022-12-08T03:25:22.800Z,-2.40
2022-12-08T03:27:55.055Z,-2.40
2022-12-08T03:30:25.166Z,-2.30
2022-12-08T03:33:05.128Z,-2.50
2022-12-08T03:35:40.484Z,-2.60
2022-12-08T03:38:16.683Z,-2.80
2022-12-08T03:41:09.675Z,-2.70
2022-12-08T03:43:40.229Z,-2.80
2022-12-08T03:46:10.331Z,-2.70
2022-12-08T03:48:40.335Z,-2.80
2022-12-08T03:51:10.817Z,-2.80
2022-12-08T03:53:43.623Z,-2.90
2022-12-08T03:56:26.341Z,-2.80
2022-12-08T03:58:57.668Z,-2.80
2022-12-08T04:01:28.427Z,-2.70
2022-12-08T04:03:58.654Z,-2.60
2022-12-08T04:06:29.019Z,-2.60
2022-12-08T04:09:02.073Z,-2.70
2022-12-08T04:11:32.100Z,-2.60
2022-12-08T04:14:02.177Z,-2.60
2022-12-08T04:16:32.288Z,-2.60
2022-12-08T04:19:02.286Z,-2.60
2022-12-08T04:21:32.646Z,-2.60
2022-12-08T04:24:05.395Z,-2.60
2022-12-08T04:26:35.426Z,-2.60
2022-12-08T04:29:05.472Z,-2.70
2022-12-08T04:31:35.591Z,-2.90
2022-12-08T04:34:05.753Z,-3.00
2022-12-08T04:36:35.943Z,-3.00
2022-12-08T04:39:08.621Z,-3.00
2022-12-08T04:41:38.623Z,-3.00
2022-12-08T04:44:08.644Z,-3.00
2022-12-08T04:46:43.122Z,-3.00
2022-12-08T04:49:13.925Z,-3.00
2022-12-08T04:51:43.959Z,-3.00
2022-12-08T04:54:16.586Z,-2.90
2022-12-08T04:56:46.601Z,-3.10
2022-12-08T04:59:16.894Z,-3.20
2022-12-08T05:01:47.162Z,-3.20
2022-12-08T05:04:17.349Z,-3.30
2022-12-08T05:06:47.334Z,-3.20
2022-12-08T05:09:19.946Z,-3.20
2022-12-08T05:11:50.011Z,-3.20
2022-12-08T05:14:21.691Z,-3.10
2022-12-08T05:16:51.920Z,-3.10
2022-12-08T05:19:22.227Z,-3.10
2022-12-08T05:21:52.267Z,-3.20
2022-12-08T05:24:25.218Z,-3.10
2022-12-08T05:26:55.219Z,-3.20
2022-12-08T05:29:25.292Z,-3.20
2022-12-08T05:31:55.404Z,-3.30
2022-12-08T05:34:25.718Z,-3.30
2022-12-08T05:36:55.795Z,-3.20
2022-12-08T05:39:28.744Z,-3.20
2022-12-08T05:41:59.603Z,-3.20
2022-12-08T05:44:29.894Z,-3.30
2022-12-08T05:46:59.881Z,-3.30
2022-12-08T05:49:30.005Z,-3.20
2022-12-08T05:52:00.162Z,-3.30
2022-12-08T05:54:32.846Z,-3.30
2022-12-08T05:57:03.174Z,-3.30
2022-12-08T05:59:33.331Z,-3.30
2022-12-08T06:02:03.641Z,-3.20
2022-12-08T06:04:33.764Z,-3.30
2022-12-08T06:07:03.887Z,-3.30
2022-12-08T06:09:36.554Z,-3.40
2022-12-08T06:12:06.983Z,-3.40
2022-12-08T06:14:37.039Z,-3.50
2022-12-08T06:17:07.138Z,-3.50
2022-12-08T06:19:37.273Z,-3.50
2022-12-08T06:22:24.456Z,-3.40
2022-12-08T06:24:57.017Z,-3.50
2022-12-08T06:27:27.176Z,-3.60
2022-12-08T06:29:57.670Z,-3.70
2022-12-08T06:32:27.869Z,-3.70
2022-12-08T06:34:57.970Z,-3.70
2022-12-08T06:37:28.709Z,-3.60
2022-12-08T06:40:01.552Z,-3.60
2022-12-08T06:42:47.288Z,-3.60
2022-12-08T06:45:19.885Z,-3.40
2022-12-08T06:47:49.978Z,-3.30
2022-12-08T06:50:20.178Z,-3.40
2022-12-08T06:53:01.047Z,-3.60
2022-12-08T06:56:06.345Z,-3.60
2022-12-08T06:58:27.479Z,-3.80
2022-12-08T07:00:57.615Z,-3.60
2022-12-08T07:03:27.717Z,-3.50
2022-12-08T07:06:03.805Z,-3.40
2022-12-08T07:08:34.731Z,-3.30
2022-12-08T07:11:19.642Z,-3.40
2022-12-08T07:13:51.738Z,-3.50
2022-12-08T07:16:24.589Z,-3.60
2022-12-08T07:18:54.649Z,-3.50
2022-12-08T07:21:24.763Z,-3.40
2022-12-08T07:23:57.847Z,-3.40
2022-12-08T07:26:30.823Z,-3.40
2022-12-08T07:29:02.382Z,-3.40
2022-12-08T07:31:32.688Z,-3.40
2022-12-08T07:34:02.806Z,-3.20
2022-12-08T07:36:32.930Z,-3.10
2022-12-08T07:39:03.047Z,-3.00
2022-12-08T07:41:36.175Z,-2.90
2022-12-08T07:44:07.080Z,-2.90
2022-12-08T07:46:37.196Z,-2.90
2022-12-08T07:49:07.639Z,-2.90
2022-12-08T07:51:37.685Z,-2.80
2022-12-08T07:54:08.004Z,-2.70
2022-12-08T07:56:40.659Z,-2.80
2022-12-08T07:59:10.690Z,-2.70
2022-12-08T08:01:45.181Z,-2.70
2022-12-08T08:04:15.938Z,-2.50
2022-12-08T08:06:46.286Z,-2.40
2022-12-08T08:09:16.340Z,-2.40
2022-12-08T08:12:07.479Z,-2.40
2022-12-08T08:14:39.059Z,-2.30
2022-12-08T08:17:09.310Z,-2.30
2022-12-08T08:19:40.031Z,-2.20
2022-12-08T08:22:10.055Z,-2.20
2022-12-08T08:24:44.618Z,-2.20
2022-12-08T08:27:17.807Z,-2.10
2022-12-08T08:29:47.880Z,-2.00
2022-12-08T08:32:18.068Z,-2.00
2022-12-08T08:34:48.199Z,-2.00
2022-12-08T08:37:18.417Z,-2.00
2022-12-08T08:39:48.481Z,-1.90
2022-12-08T08:42:21.101Z,-1.90
2022-12-08T08:44:51.195Z,-1.90
2022-12-08T08:47:22.479Z,-1.80
2022-12-08T08:49:52.576Z,-1.70
2022-12-08T08:52:22.604Z,-1.70
2022-12-08T08:54:52.634Z,-1.60
2022-12-08T08:57:26.121Z,-1.60
2022-12-08T08:59:56.728Z,-1.60
2022-12-08T09:02:26.964Z,-1.50
2022-12-08T09:04:57.034Z,-1.40
2022-12-08T09:07:27.231Z,-1.30
2022-12-08T09:10:01.639Z,-1.20
2022-12-08T09:12:34.850Z,-1.20
2022-12-08T09:15:05.193Z,-1.20
2022-12-08T09:17:35.263Z,-1.20
2022-12-08T09:20:05.710Z,-1.20
2022-12-08T09:22:35.949Z,-1.10
2022-12-08T09:25:06.391Z,-1.10
2022-12-08T09:27:39.093Z,-1.00
2022-12-08T09:30:11.849Z,-0.90
2022-12-08T09:32:42.638Z,-0.90
2022-12-08T09:35:12.996Z,-0.80
2022-12-08T09:37:43.115Z,-0.80
2022-12-08T09:40:21.339Z,-0.70
2022-12-08T09:43:03.066Z,-0.60
2022-12-08T09:45:38.436Z,-0.50
2022-12-08T09:48:16.249Z,-0.50
2022-12-08T09:50:55.040Z,-0.40
2022-12-08T09:53:35.674Z,-0.40
2022-12-08T09:56:12.606Z,-0.40
2022-12-08T09:58:54.496Z,-0.30
2022-12-08T10:01:29.548Z,-0.20
2022-12-08T10:04:00.310Z,-0.10
2022-12-08T10:06:36.398Z,-0.10
2022-12-08T10:09:35.079Z,0.00
2022-12-08T10:12:19.966Z,0.00
2022-12-08T10:15:01.961Z,0.10
2022-12-08T10:17:38.589Z,0.10
2022-12-08T10:20:17.731Z,0.20
2022-12-08T10:22:55.936Z,0.30
2022-12-08T10:25:37.848Z,0.40
2022-12-08T10:28:08.116Z,0.40
2022-12-08T10:30:40.760Z,0.50
2022-12-08T10:33:18.424Z,0.50
2022-12-08T10:35:51.493Z,0.60
2022-12-08T10:38:30.380Z,0.60
2022-12-08T10:41:09.183Z,0.70
2022-12-08T10:43:45.331Z,0.70
2022-12-08T10:46:21.665Z,0.80
2022-12-08T10:48:58.470Z,0.80
2022-12-08T10:51:32.788Z,0.90
2022-12-08T10:54:06.058Z,1.00
2022-12-08T10:56:36.526Z,1.00
2022-12-08T10:59:21.630Z,1.10
2022-12-08T11:01:57.572Z,1.10
2022-12-08T11:04:40.149Z,1.10
2022-12-08T11:07:13.691Z,1.20
2022-12-08T11:09:49.161Z,1.20
2022-12-08T11:12:22.212Z,1.20
2022-12-08T11:15:01.135Z,1.30
2022-12-08T11:17:43.941Z,1.40
2022-12-08T11:20:25.922Z,1.40
2022-12-08T11:22:57.997Z,1.50
2022-12-08T11:25:30.255Z,1.50
2022-12-08T11:28:03.190Z,1.60
2022-12-08T11:30:40.612Z,1.60
2022-12-08T11:33:21.259Z,1.70
2022-12-08T11:35:59.337Z,1.70
2022-12-08T11:38:32.088Z,1.70
2022-12-08T11:41:14.023Z,1.70
2022-12-08T11:43:54.653Z,1.90
2022-12-08T11:46:28.713Z,2.00
2022-12-08T11:49:07.242Z,2.00
2022-12-08T11:51:42.919Z,2.00
2022-12-08T11:54:24.508Z,2.10
2022-12-08T11:56:59.140Z,2.30
2022-12-08T11:59:35.914Z,2.30
2022-12-08T12:02:11.015Z,2.50
2022-12-08T12:04:52.116Z,2.60
2022-12-08T12:07:50.863Z,2.90
2022-12-08T12:10:40.198Z,3.10
2022-12-08T12:13:52.349Z,3.50
2022-12-08T12:17:00.304Z,3.60
2022-12-08T12:19:36.622Z,3.50
2022-12-08T12:22:19.392Z,3.50
2022-12-08T12:24:54.528Z,3.40
2022-12-08T12:27:33.715Z,3.60
2022-12-08T12:30:09.898Z,3.50
2022-12-08T12:32:51.885Z,3.60
2022-12-08T12:35:34.421Z,3.60
2022-12-08T12:38:32.175Z,3.60
2022-12-08T12:41:06.940Z,3.50
2022-12-08T12:43:39.831Z,3.40
2022-12-08T12:46:56.012Z,3.40
2022-12-08T12:50:09.506Z,3.40
2022-12-08T12:52:53.236Z,3.30
2022-12-08T12:55:54.925Z,3.30
2022-12-08T12:58:42.433Z,3.10
2022-12-08T13:01:51.525Z,2.80
2022-12-08T13:04:22.309Z,2.80
2022-12-08T13:06:53.902Z,2.80
2022-12-08T13:09:33.329Z,2.80
2022-12-08T13:12:22.688Z,2.80
2022-12-08T13:14:56.226Z,2.70
2022-12-08T13:17:32.842Z,2.70
2022-12-08T13:20:08.143Z,2.70
2022-12-08T13:23:14.946Z,2.70
2022-12-08T13:25:55.533Z,2.80
2022-12-08T13:28:31.315Z,2.70
2022-12-08T13:31:02.890Z,2.80
2022-12-08T13:33:36.555Z,2.80
2022-12-08T13:36:23.814Z,2.90
2022-12-08T13:39:00.768Z,3.10
2022-12-08T13:41:39.845Z,3.30
2022-12-08T13:47:33.843Z,3.70
2022-12-08T13:59:09.051Z,4.30
2022-12-08T14:01:48.498Z,4.40
2022-12-08T14:04:42.514Z,4.30
2022-12-08T14:07:14.623Z,4.10
2022-12-08T14:09:45.710Z,4.10
2022-12-08T14:12:23.553Z,4.10
2022-12-08T14:15:04.379Z,4.20
2022-12-08T14:17:38.374Z,4.30
2022-12-08T14:20:25.158Z,4.20
2022-12-08T14:22:57.094Z,4.10
2022-12-08T14:25:29.648Z,4.10
2022-12-08T14:28:04.703Z,4.20
2022-12-08T14:30:37.817Z,4.20
2022-12-08T14:33:19.091Z,4.10
2022-12-08T14:35:54.898Z,4.20
2022-12-08T14:38:28.806Z,4.30
2022-12-08T14:41:07.987Z,4.10
2022-12-08T14:43:38.135Z,4.20
2022-12-08T14:46:24.455Z,4.10
2022-12-08T14:48:58.792Z,4.00
2022-12-08T14:51:36.836Z,4.00
2022-12-08T14:54:14.752Z,3.90
2022-12-08T14:56:54.829Z,4.00
2022-12-08T14:59:30.708Z,3.80
2022-12-08T15:02:25.304Z,3.80
2022-12-08T15:05:06.127Z,3.80
2022-12-08T15:07:49.479Z,3.70
2022-12-08T15:10:31.023Z,3.60
2022-12-08T15:13:09.116Z,3.50
2022-12-08T15:15:52.295Z,3.50
2022-12-08T15:18:31.728Z,3.50
2022-12-08T15:21:12.801Z,3.40
2022-12-08T15:23:46.514Z,3.40
2022-12-08T15:26:24.312Z,3.30
2022-12-08T15:28:55.217Z,3.30
2022-12-08T15:31:25.339Z,3.20
2022-12-08T15:33:55.435Z,3.30
2022-12-08T15:36:28.008Z,3.30
2022-12-08T15:38:58.294Z,3.20
2022-12-08T15:41:28.311Z,3.10
2022-12-08T15:43:58.369Z,3.10
2022-12-08T15:46:28.510Z,3.20
2022-12-08T15:48:58.629Z,3.20
2022-12-08T15:51:36.371Z,3.20
2022-12-08T15:54:06.738Z,3.00
2022-12-08T15:56:45.411Z,3.10
2022-12-08T15:59:28.166Z,3.20
2022-12-08T16:01:58.292Z,3.10
2022-12-08T16:05:11.937Z,3.00
2022-12-08T16:07:28.346Z,3.00
2022-12-08T16:09:59.709Z,2.90
2022-12-08T16:15:59.285Z,2.80
2022-12-08T16:18:31.462Z,2.80
2022-12-08T16:21:26.820Z,2.90
2022-12-08T16:23:55.104Z,2.80
2022-12-08T16:27:28.427Z,2.90
2022-12-08T16:29:22.919Z,2.90
2022-12-08T16:31:53.170Z,3.00
2022-12-08T16:34:23.242Z,3.00
2022-12-08T16:36:53.934Z,3.00
2022-12-08T16:39:26.691Z,2.80
2022-12-08T16:42:09.153Z,2.90
2022-12-08T16:47:42.332Z,2.90
2022-12-08T16:50:17.590Z,3.00
2022-12-08T16:53:00.422Z,3.00
2022-12-08T16:55:43.329Z,2.90
2022-12-08T17:09:18.546Z,3.00
2022-12-08T17:18:55.324Z,3.00
2022-12-08T17:24:42.158Z,2.90
2022-12-08T17:27:12.142Z,2.80
2022-12-08T17:29:42.191Z,2.90
2022-12-08T17:32:12.249Z,2.90
2022-12-08T17:34:42.359Z,2.90
2022-12-08T17:37:12.498Z,2.90
2022-12-08T17:39:45.270Z,2.90
2022-12-08T17:42:15.368Z,2.90
2022-12-08T17:44:46.889Z,2.80
2022-12-08T17:47:16.913Z,2.90
2022-12-08T17:49:47.004Z,2.80
2022-12-08T17:52:17.156Z,2.80
2022-12-08T17:54:49.864Z,2.80
2022-12-08T17:57:19.905Z,2.80
2022-12-08T17:59:49.971Z,2.70
2022-12-08T18:02:20.047Z,2.80
2022-12-08T18:04:50.338Z,2.70
2022-12-08T18:07:20.392Z,2.70
2022-12-08T18:09:54.842Z,2.70
2022-12-08T18:12:25.098Z,2.70
2022-12-08T18:14:55.121Z,2.60
2022-12-08T18:17:25.189Z,2.60
2022-12-08T18:19:55.293Z,2.60
2022-12-08T18:22:26.869Z,2.50
2022-12-08T18:24:59.526Z,2.50
2022-12-08T18:27:29.891Z,2.50
2022-12-08T18:30:00.537Z,2.60
2022-12-08T18:32:30.746Z,2.60
2022-12-08T18:35:00.849Z,2.60
2022-12-08T18:37:30.984Z,2.60
2022-12-08T18:40:03.806Z,2.50
2022-12-08T18:42:34.079Z,2.40
2022-12-08T18:45:06.873Z,2.30
2022-12-08T18:47:40.046Z,2.20
2022-12-08T18:50:12.329Z,2.10
2022-12-08T18:52:42.523Z,1.90
2022-12-08T18:55:15.405Z,1.90
2022-12-08T18:57:46.396Z,1.90
2022-12-08T19:00:21.539Z,1.80
2022-12-08T19:02:51.970Z,1.80
2022-12-08T19:05:22.250Z,1.70
2022-12-08T19:07:52.552Z,1.60
2022-12-08T19:10:25.320Z,1.60
2022-12-08T19:12:56.216Z,1.50
2022-12-08T19:15:26.279Z,1.40
2022-12-08T19:17:56.562Z,1.30
2022-12-08T19:20:27.445Z,1.20
2022-12-08T19:22:57.591Z,1.00
2022-12-08T19:25:30.236Z,1.00
2022-12-08T19:28:00.262Z,0.90
2022-12-08T19:30:30.321Z,0.70
2022-12-08T19:33:00.550Z,0.70
2022-12-08T19:35:30.596Z,0.60
2022-12-08T19:38:00.643Z,0.70
2022-12-08T19:40:45.859Z,0.60
2022-12-08T19:43:32.536Z,0.40
2022-12-08T19:46:02.881Z,0.30
2022-12-08T19:48:33.037Z,0.20
2022-12-08T19:51:03.050Z,0.10
2022-12-08T19:53:33.178Z,-0.10
2022-12-08T19:56:06.602Z,-0.30
2022-12-08T19:58:36.632Z,-0.50
2022-12-08T20:01:07.006Z,-0.70
2022-12-08T20:03:37.225Z,-0.70
2022-12-08T20:06:07.809Z,-0.70
2022-12-08T20:08:37.980Z,-0.70
2022-12-08T20:11:10.756Z,-0.90
2022-12-08T20:13:45.698Z,-1.00
2022-12-08T20:16:16.619Z,-1.10
2022-12-08T20:18:48.607Z,-1.30
2022-12-08T20:21:19.448Z,-1.40
2022-12-08T20:23:49.984Z,-1.40
2022-12-08T20:26:25.384Z,-1.50
2022-12-08T20:28:55.768Z,-1.50
2022-12-08T20:31:28.709Z,-1.40
2022-12-08T20:33:59.162Z,-1.40
2022-12-08T20:36:29.949Z,-1.40
2022-12-08T20:39:00.825Z,-1.40
2022-12-08T20:41:38.810Z,-1.40
2022-12-08T20:44:10.064Z,-1.50
2022-12-08T20:46:43.735Z,-1.60
2022-12-08T20:49:16.716Z,-1.70
2022-12-08T20:51:47.298Z,-1.70
2022-12-08T20:54:17.460Z,-1.90
2022-12-08T20:56:50.267Z,-2.00
2022-12-08T20:59:20.828Z,-2.00
2022-12-08T21:01:51.044Z,-2.10
2022-12-08T21:04:21.821Z,-2.10
2022-12-08T21:06:52.803Z,-2.10
2022-12-08T21:09:23.014Z,-2.00
2022-12-08T21:11:56.113Z,-1.60
2022-12-08T21:14:26.136Z,-1.60
2022-12-08T21:16:56.346Z,-1.70
2022-12-08T21:19:26.868Z,-1.70
2022-12-08T21:21:57.061Z,-1.70
2022-12-08T21:24:33.542Z,-1.80
2022-12-08T21:27:06.980Z,-2.00
2022-12-08T21:29:37.399Z,-2.10
2022-12-08T21:32:08.299Z,-2.10
2022-12-08T21:34:38.330Z,-2.20
2022-12-08T21:37:08.576Z,-2.20
2022-12-08T21:39:38.861Z,-2.40
2022-12-08T21:42:27.971Z,-2.40
2022-12-08T21:45:02.443Z,-2.50
2022-12-08T21:47:32.646Z,-2.50
2022-12-08T21:50:03.104Z,-2.50
2022-12-08T21:52:33.400Z,-2.60
2022-12-08T21:55:03.477Z,-2.40
2022-12-08T21:57:36.259Z,-2.30
2022-12-08T22:00:08.063Z,-2.20
2022-12-08T22:02:38.609Z,-2.20
2022-12-08T22:05:10.496Z,-2.20
2022-12-08T22:07:43.648Z,-2.30
2022-12-08T22:10:14.760Z,-2.40
2022-12-08T22:12:47.612Z,-2.40
2022-12-08T22:15:18.250Z,-2.40
2022-12-08T22:17:48.514Z,-2.50
2022-12-08T22:20:19.789Z,-2.50
2022-12-08T22:22:49.968Z,-2.50
2022-12-08T22:25:21.542Z,-2.50
2022-12-08T22:27:54.507Z,-2.60
2022-12-08T22:30:24.646Z,-2.80
2022-12-08T22:32:55.549Z,-2.90
2022-12-08T22:35:26.072Z,-3.00
2022-12-08T22:37:56.213Z,-2.90
2022-12-08T22:40:26.369Z,-2.80
2022-12-08T22:42:59.307Z,-2.80
2022-12-08T22:45:29.983Z,-2.70
2022-12-08T22:48:00.138Z,-2.80
2022-12-08T22:50:30.417Z,-2.90
2022-12-08T22:53:00.554Z,-2.90
2022-12-08T22:55:30.761Z,-2.80
2022-12-08T22:58:03.378Z,-2.90
2022-12-08T23:00:33.436Z,-3.00
2022-12-08T23:03:03.690Z,-3.10
2022-12-08T23:05:39.028Z,-3.30
2022-12-08T23:08:11.653Z,-3.50
2022-12-08T23:10:43.565Z,-3.40
2022-12-08T23:13:17.725Z,-3.40
2022-12-08T23:15:48.311Z,-3.30
2022-12-08T23:18:21.212Z,-3.20
2022-12-08T23:20:51.299Z,-3.10
2022-12-08T23:23:21.357Z,-3.10
2022-12-08T23:25:51.475Z,-3.10
2022-12-08T23:28:24.234Z,-3.00
2022-12-08T23:30:54.558Z,-2.90
2022-12-08T23:33:25.146Z,-2.80
2022-12-08T23:36:00.000Z,-2.80
2022-12-08T23:38:30.317Z,-2.80
2022-12-08T23:41:04.409Z,-2.80
2022-12-08T23:43:37.871Z,-2.80
2022-12-08T23:46:08.136Z,-3.10
2022-12-08T23:48:38.183Z,-3.10
2022-12-08T23:51:08.784Z,-3.10
2022-12-08T23:53:40.301Z,-2.90
2022-12-08T23:56:15.566Z,-2.90
2022-12-08T23:58:49.288Z,-2.80
